Time;durP1;ratioP1;P1;durP2;ratioP2;P2;SDS_P1;SDS_P2;PMS_P1;PMS_P2;Temp;Humidity;BMP_temperature;BMP_pressure;BME280_temperature;BME280_humidity;BME280_pressure;Samples;Min_cycle;Max_cycle;Signal;HPM_P1;HPM_P2
2024/01/29 00:00:15;;;;;;;13.10;6.50;;;;;;;-0.29;85.79;102185.71;129701;1274;114815;-63
2024/01/29 00:03:40;;;;;;;34.10;15.20;;;;;;;-0.29;85.93;102185.88;129888;1270;114689;-64
2024/01/29 00:06:51;;;;;;;34.50;17.60;;;;;;;-0.31;86.04;102183.92;129833;1277;128963;-63
2024/01/29 00:09:54;;;;;;;23.60;11.50;;;;;;;-0.29;85.99;102181.31;130215;1277;115154;-64
2024/01/29 00:12:58;;;;;;;28.40;12.90;;;;;;;-0.29;86.12;102176.40;130201;1258;114834;-63
2024/01/29 00:16:02;;;;;;;21.90;11.50;;;;;;;-0.28;86.20;102174.31;130136;1277;114799;-63
2024/01/29 00:19:08;;;;;;;28.90;15.00;;;;;;;-0.28;86.12;102170.45;130059;1270;114693;-63
2024/01/29 00:22:10;;;;;;;11.20;6.10;;;;;;;-0.28;86.01;102175.04;130087;1260;115250;-63
2024/01/29 00:25:12;;;;;;;25.30;13.50;;;;;;;-0.29;86.07;102177.11;130110;1258;115404;-62
2024/01/29 00:28:14;;;;;;;18.30;10.80;;;;;;;-0.30;86.11;102185.33;129743;1277;128431;-62
2024/01/29 00:31:16;;;;;;;26.90;12.90;;;;;;;-0.30;86.12;102186.37;129950;1257;114796;-63
2024/01/29 00:34:19;;;;;;;32.80;14.90;;;;;;;-0.30;86.14;102190.60;130041;1254;114814;-62
2024/01/29 00:37:22;;;;;;;32.50;13.60;;;;;;;-0.31;86.02;102195.67;129801;1262;114766;-61
2024/01/29 00:40:25;;;;;;;31.10;15.40;;;;;;;-0.30;86.13;102200.60;129874;1253;114917;-62
2024/01/29 00:43:27;;;;;;;24.10;12.60;;;;;;;-0.31;85.95;102197.26;130110;1257;114740;-62
2024/01/29 00:46:30;;;;;;;32.60;14.30;;;;;;;-0.32;86.07;102192.48;129970;1253;114769;-63
2024/01/29 00:49:32;;;;;;;31.50;14.40;;;;;;;-0.33;85.96;102189.67;130051;1277;127825;-64
2024/01/29 00:52:34;;;;;;;28.20;13.20;;;;;;;-0.34;85.95;102186.30;129978;1258;115302;-63
2024/01/29 00:55:36;;;;;;;24.20;11.50;;;;;;;-0.36;86.01;102183.61;130069;1256;115176;-63
2024/01/29 00:58:43;;;;;;;22.60;13.80;;;;;;;-0.38;86.17;102180.91;129832;1253;115103;-63
2024/01/29 01:01:45;;;;;;;17.60;8.00;;;;;;;-0.39;86.16;102175.44;129610;1265;116365;-63
2024/01/29 01:04:48;;;;;;;19.10;8.10;;;;;;;-0.39;86.39;102176.14;129965;1270;115238;-63
2024/01/29 01:07:50;;;;;;;12.00;5.40;;;;;;;-0.40;86.43;102177.16;130011;1277;114641;-64
2024/01/29 01:10:51;;;;;;;30.50;13.50;;;;;;;-0.41;86.40;102173.29;129791;1277;128938;-63
2024/01/29 01:13:53;;;;;;;26.30;12.80;;;;;;;-0.42;86.50;102170.64;130010;1277;115315;-63
2024/01/29 01:16:55;;;;;;;22.70;12.10;;;;;;;-0.44;86.38;102169.90;129927;1273;114817;-63
2024/01/29 01:19:57;;;;;;;25.80;13.40;;;;;;;-0.45;86.53;102164.40;129940;1258;114706;-62
2024/01/29 01:23:01;;;;;;;24.30;11.90;;;;;;;-0.47;86.54;102165.41;130007;1254;115167;-62
2024/01/29 01:26:03;;;;;;;22.00;10.10;;;;;;;-0.49;86.55;102161.50;129858;1257;114772;-63
2024/01/29 01:29:05;;;;;;;29.50;12.70;;;;;;;-0.50;86.65;102161.48;129843;1254;115240;-62
2024/01/29 01:32:07;;;;;;;25.70;13.00;;;;;;;-0.50;86.72;102166.39;129907;1254;115128;-63
2024/01/29 01:35:09;;;;;;;32.30;13.50;;;;;;;-0.51;86.58;102173.41;129862;1277;114728;-62
2024/01/29 01:38:11;;;;;;;27.90;14.50;;;;;;;-0.51;86.57;102182.35;129880;1273;114709;-63
2024/01/29 01:41:13;;;;;;;27.30;13.50;;;;;;;-0.51;86.57;102179.36;129890;1254;114837;-62
2024/01/29 01:44:15;;;;;;;28.60;13.80;;;;;;;-0.53;86.34;102177.02;129923;1258;115288;-62
2024/01/29 01:47:17;;;;;;;28.70;13.90;;;;;;;-0.55;86.44;102171.86;129798;1257;114683;-62
2024/01/29 01:50:19;;;;;;;26.10;11.60;;;;;;;-0.57;86.58;102164.96;129996;1253;115603;-62
2024/01/29 01:53:21;;;;;;;14.90;7.20;;;;;;;-0.59;86.49;102164.39;129897;1277;129043;-62
2024/01/29 01:56:24;;;;;;;25.80;13.60;;;;;;;-0.62;86.65;102162.58;129843;1274;114709;-62
2024/01/29 01:59:26;;;;;;;23.00;11.40;;;;;;;-0.62;87.08;102162.04;129926;1253;114798;-63
2024/01/29 02:02:29;;;;;;;27.60;13.60;;;;;;;-0.63;86.96;102157.64;129951;1253;114703;-63
2024/01/29 02:05:31;;;;;;;15.60;6.60;;;;;;;-0.63;86.94;102149.71;129951;1264;114712;-62
2024/01/29 02:08:34;;;;;;;25.30;15.50;;;;;;;-0.64;87.07;102155.31;129881;1253;114724;-62
2024/01/29 02:11:36;;;;;;;27.90;13.30;;;;;;;-0.66;86.89;102154.74;129813;1259;114694;-62
2024/01/29 02:14:38;;;;;;;13.50;6.60;;;;;;;-0.68;87.28;102153.13;129601;1277;128446;-62
2024/01/29 02:17:40;;;;;;;23.20;11.10;;;;;;;-0.69;87.26;102156.22;129938;1273;115177;-62
2024/01/29 02:20:42;;;;;;;23.90;12.90;;;;;;;-0.71;86.89;102153.71;129917;1254;114812;-62
2024/01/29 02:23:45;;;;;;;26.10;14.00;;;;;;;-0.74;87.10;102153.29;129672;1260;115292;-63
2024/01/29 02:26:47;;;;;;;19.30;9.30;;;;;;;-0.76;87.29;102151.48;129893;1257;114773;-62
2024/01/29 02:29:50;;;;;;;14.80;6.00;;;;;;;-0.79;87.27;102150.71;129983;1257;115417;-63
2024/01/29 02:32:52;;;;;;;13.60;6.70;;;;;;;-0.81;87.29;102140.30;129937;1257;114707;-62
2024/01/29 02:35:55;;;;;;;32.00;15.70;;;;;;;-0.84;87.35;102134.27;129576;1257;128629;-62
2024/01/29 02:38:56;;;;;;;38.00;15.80;;;;;;;-0.87;87.29;102131.02;129984;1256;114841;-62
2024/01/29 02:41:59;;;;;;;29.90;15.90;;;;;;;-0.90;87.51;102129.72;129887;1254;114944;-63
2024/01/29 02:45:03;;;;;;;37.10;18.40;;;;;;;-0.93;87.25;102133.16;129905;1257;114796;-62
2024/01/29 02:48:05;;;;;;;27.70;14.10;;;;;;;-0.95;87.31;102128.16;129900;1258;115382;-62
2024/01/29 02:51:07;;;;;;;40.70;17.80;;;;;;;-0.97;87.50;102125.12;129998;1259;114749;-63
2024/01/29 02:54:09;;;;;;;35.50;17.10;;;;;;;-1.00;87.54;102121.20;129949;1254;115132;-63
2024/01/29 02:57:12;;;;;;;38.20;18.30;;;;;;;-1.01;87.53;102123.45;129926;1253;114863;-63
2024/01/29 03:00:14;;;;;;;23.40;11.00;;;;;;;-1.02;87.69;102128.14;129928;1277;114808;-63
2024/01/29 03:03:16;;;;;;;33.10;18.40;;;;;;;-1.03;87.38;102129.69;129766;1260;114760;-63
2024/01/29 03:06:18;;;;;;;31.40;15.40;;;;;;;-1.05;87.67;102125.61;130074;1258;114715;-63
2024/01/29 03:09:20;;;;;;;33.60;15.80;;;;;;;-1.07;87.52;102120.30;129918;1258;115101;-62
2024/01/29 03:12:23;;;;;;;41.20;18.60;;;;;;;-1.08;87.84;102121.16;129891;1257;114780;-63
2024/01/29 03:15:25;;;;;;;23.70;13.00;;;;;;;-1.10;87.84;102115.34;130007;1258;114836;-62
2024/01/29 03:18:27;;;;;;;43.00;19.30;;;;;;;-1.11;87.52;102115.10;129866;1277;129106;-62
2024/01/29 03:21:29;;;;;;;31.00;16.20;;;;;;;-1.13;87.77;102112.95;129704;1262;114772;-62
2024/01/29 03:24:31;;;;;;;30.00;14.50;;;;;;;-1.13;87.68;102113.63;129947;1254;115156;-62
2024/01/29 03:27:35;;;;;;;28.70;14.90;;;;;;;-1.14;88.18;102114.14;129968;1258;114728;-62
2024/01/29 03:30:37;;;;;;;38.70;17.60;;;;;;;-1.14;88.11;102112.04;129620;1265;115068;-63
2024/01/29 03:33:40;;;;;;;31.40;15.70;;;;;;;-1.14;88.18;102109.41;129953;1259;114724;-62
2024/01/29 03:36:46;;;;;;;44.20;22.10;;;;;;;-1.14;88.38;102107.66;130121;1254;115669;-63
2024/01/29 03:39:48;;;;;;;36.10;18.20;;;;;;;-1.14;88.54;102109.06;130071;1260;128928;-63
2024/01/29 03:42:49;;;;;;;36.90;15.50;;;;;;;-1.13;88.44;102105.23;129883;1277;114757;-63
2024/01/29 03:45:53;;;;;;;27.10;13.30;;;;;;;-1.13;88.55;102107.52;130060;1257;115169;-63
2024/01/29 03:48:55;;;;;;;29.50;12.80;;;;;;;-1.13;88.62;102096.11;129825;1253;114896;-63
2024/01/29 03:51:57;;;;;;;33.90;16.30;;;;;;;-1.12;88.66;102097.17;130056;1257;114703;-63
2024/01/29 03:54:59;;;;;;;28.80;14.20;;;;;;;-1.12;89.03;102096.67;130046;1277;114817;-63
2024/01/29 03:58:02;;;;;;;27.80;13.40;;;;;;;-1.12;88.98;102095.43;130035;1254;114857;-63
2024/01/29 04:01:04;;;;;;;38.40;19.50;;;;;;;-1.13;88.68;102097.00;129993;1277;127792;-63
2024/01/29 04:04:11;;;;;;;35.90;17.20;;;;;;;-1.13;88.46;102097.33;129611;1264;114835;-63
2024/01/29 04:07:13;;;;;;;37.20;17.60;;;;;;;-1.15;88.52;102096.92;129954;1258;114711;-63
2024/01/29 04:10:15;;;;;;;38.40;17.90;;;;;;;-1.17;88.55;102093.02;129925;1259;115385;-63
2024/01/29 04:13:18;;;;;;;39.80;19.80;;;;;;;-1.19;88.76;102089.46;129995;1259;114708;-63
2024/01/29 04:16:20;;;;;;;31.70;16.00;;;;;;;-1.21;88.66;102082.20;129944;1277;114698;-63
2024/01/29 04:19:22;;;;;;;38.80;20.40;;;;;;;-1.23;88.41;102082.15;129919;1259;114792;-63
2024/01/29 04:22:25;;;;;;;39.50;19.30;;;;;;;-1.24;88.49;102080.02;130008;1259;128762;-63
2024/01/29 04:25:27;;;;;;;26.90;13.50;;;;;;;-1.26;88.87;102074.02;130077;1258;115177;-63
2024/01/29 04:28:29;;;;;;;49.30;22.30;;;;;;;-1.29;88.81;102070.27;129988;1259;115070;-63
2024/01/29 04:31:31;;;;;;;45.10;24.60;;;;;;;-1.30;88.73;102070.56;130114;1277;115311;-63
2024/01/29 04:34:34;;;;;;;35.80;17.90;;;;;;;-1.32;88.64;102068.59;129766;1254;115167;-63
2024/01/29 04:37:36;;;;;;;47.30;20.30;;;;;;;-1.35;88.49;102065.87;130002;1259;114680;-63
2024/01/29 04:40:41;;;;;;;38.30;18.20;;;;;;;-1.36;88.85;102071.45;130063;1259;114696;-63
2024/01/29 04:43:43;;;;;;;46.10;21.30;;;;;;;-1.40;88.82;102071.88;129908;1277;128935;-63
2024/01/29 04:46:45;;;;;;;45.80;21.90;;;;;;;-1.41;88.79;102075.88;129965;1269;115222;-62
2024/01/29 04:49:47;;;;;;;46.10;20.90;;;;;;;-1.42;89.13;102069.73;129983;1253;114740;-63
2024/01/29 04:52:49;;;;;;;32.10;16.30;;;;;;;-1.44;89.23;102067.05;129975;1273;114728;-62
2024/01/29 04:55:51;;;;;;;44.60;21.60;;;;;;;-1.46;89.12;102062.23;129942;1267;115304;-63
2024/01/29 04:58:54;;;;;;;47.40;21.00;;;;;;;-1.48;89.36;102059.89;130192;1277;114923;-63
2024/01/29 05:01:56;;;;;;;42.70;19.20;;;;;;;-1.51;88.95;102054.56;130082;1258;114832;-63
2024/01/29 05:04:58;;;;;;;45.10;21.80;;;;;;;-1.52;89.04;102055.23;130091;1257;114707;-63
2024/01/29 05:08:01;;;;;;;31.70;15.50;;;;;;;-1.53;89.25;102052.58;130074;1259;116565;-64
2024/01/29 05:11:04;;;;;;;39.30;18.80;;;;;;;-1.55;89.21;102050.96;129753;1253;114870;-64
2024/01/29 05:14:06;;;;;;;40.70;17.70;;;;;;;-1.55;89.95;102044.10;129958;1259;114774;-63
2024/01/29 05:17:09;;;;;;;38.30;19.70;;;;;;;-1.54;89.82;102047.29;130073;1259;114842;-63
2024/01/29 05:20:11;;;;;;;42.90;19.40;;;;;;;-1.53;89.95;102048.73;130064;1258;114693;-64
2024/01/29 05:23:14;;;;;;;43.30;21.50;;;;;;;-1.53;89.49;102050.83;129987;1259;114798;-64
2024/01/29 05:26:16;;;;;;;32.70;16.40;;;;;;;-1.52;90.28;102054.38;129668;1277;127578;-64
2024/01/29 05:29:18;;;;;;;34.40;15.20;;;;;;;-1.50;90.23;102053.02;129880;1277;114810;-64
2024/01/29 05:32:21;;;;;;;31.50;14.60;;;;;;;-1.48;90.45;102049.91;130035;1253;114738;-64
2024/01/29 05:35:23;;;;;;;51.10;23.20;;;;;;;-1.47;90.42;102052.05;130003;1253;114665;-64
2024/01/29 05:38:25;;;;;;;29.70;13.60;;;;;;;-1.47;89.94;102047.30;129717;1259;114811;-63
2024/01/29 05:41:27;;;;;;;22.80;12.30;;;;;;;-1.46;90.59;102044.02;129927;1259;114769;-63
2024/01/29 05:44:29;;;;;;;19.90;10.60;;;;;;;-1.45;90.19;102046.15;129631;1264;114870;-64
2024/01/29 05:47:32;;;;;;;50.40;21.70;;;;;;;-1.45;90.15;102046.16;129983;1259;114684;-63
2024/01/29 05:50:34;;;;;;;38.20;17.20;;;;;;;-1.44;90.17;102053.18;129901;1260;114812;-63
2024/01/29 05:53:36;;;;;;;43.20;20.90;;;;;;;-1.43;90.27;102054.27;129972;1259;114798;-64
2024/01/29 05:56:42;;;;;;;31.60;16.10;;;;;;;-1.42;90.16;102052.73;129540;1277;115094;-65
2024/01/29 05:59:44;;;;;;;41.60;22.20;;;;;;;-1.41;90.60;102051.01;129745;1259;115261;-63
2024/01/29 06:02:49;;;;;;;30.80;13.60;;;;;;;-1.41;90.31;102053.63;130031;1259;114820;-63
2024/01/29 06:05:52;;;;;;;47.70;23.50;;;;;;;-1.41;90.31;102051.34;130118;1269;128751;-61
2024/01/29 06:08:55;;;;;;;45.10;19.50;;;;;;;-1.42;90.61;102045.52;130004;1258;115287;-62
2024/01/29 06:11:58;;;;;;;38.50;17.50;;;;;;;-1.41;90.46;102048.19;129990;1267;114766;-62
2024/01/29 06:15:01;;;;;;;38.80;17.20;;;;;;;-1.42;90.61;102050.11;129720;1261;114831;-62
2024/01/29 06:18:04;;;;;;;42.90;20.20;;;;;;;-1.41;90.51;102049.59;129957;1259;114878;-64
2024/01/29 06:21:07;;;;;;;34.40;13.70;;;;;;;-1.41;90.49;102051.01;129992;1277;114817;-64
2024/01/29 06:24:09;;;;;;;45.00;21.00;;;;;;;-1.40;90.56;102054.16;130005;1277;114764;-64
2024/01/29 06:27:11;;;;;;;44.40;20.70;;;;;;;-1.40;90.42;102056.80;129905;1253;115361;-63
2024/01/29 06:30:14;;;;;;;41.30;21.30;;;;;;;-1.39;90.45;102055.59;130005;1259;114782;-63
2024/01/29 06:33:16;;;;;;;33.10;15.90;;;;;;;-1.39;90.89;102052.63;129807;1261;115058;-63
2024/01/29 06:36:18;;;;;;;43.50;20.70;;;;;;;-1.39;90.21;102048.08;129929;1259;114800;-63
2024/01/29 06:39:20;;;;;;;47.00;23.70;;;;;;;-1.38;90.43;102049.83;130048;1254;114728;-63
2024/01/29 06:42:22;;;;;;;29.30;13.10;;;;;;;-1.37;90.56;102048.64;129593;1259;114978;-63
2024/01/29 06:45:24;;;;;;;49.30;22.60;;;;;;;-1.36;90.59;102049.90;129965;1259;114769;-62
2024/01/29 06:48:27;;;;;;;43.30;20.70;;;;;;;-1.36;90.37;102050.09;129992;1259;116050;-63
2024/01/29 06:51:29;;;;;;;51.40;25.90;;;;;;;-1.34;90.22;102048.73;129687;1262;114857;-63
2024/01/29 06:54:31;;;;;;;47.70;23.90;;;;;;;-1.33;90.43;102048.23;129941;1267;114690;-62
2024/01/29 06:57:33;;;;;;;52.40;23.80;;;;;;;-1.32;90.57;102050.72;129910;1259;115170;-63
2024/01/29 07:00:36;;;;;;;23.10;12.20;;;;;;;-1.30;90.65;102053.05;129616;1259;114802;-63
2024/01/29 07:03:38;;;;;;;45.90;24.50;;;;;;;-1.28;90.37;102056.95;129976;1259;115179;-63
2024/01/29 07:06:40;;;;;;;47.60;22.60;;;;;;;-1.27;90.21;102056.64;129883;1254;114766;-63
2024/01/29 07:09:42;;;;;;;46.90;22.40;;;;;;;-1.25;90.37;102056.35;129926;1259;115378;-63
2024/01/29 07:12:45;;;;;;;43.50;20.20;;;;;;;-1.22;90.93;102056.41;129670;1255;114814;-63
2024/01/29 07:15:46;;;;;;;49.80;24.90;;;;;;;-1.19;90.50;102060.70;129980;1259;114708;-63
2024/01/29 07:18:49;;;;;;;32.00;15.40;;;;;;;-1.16;90.57;102060.27;130093;1259;114664;-63
2024/01/29 07:21:51;;;;;;;46.80;23.90;;;;;;;-1.12;90.15;102063.54;129704;1254;114898;-63
2024/01/29 07:24:53;;;;;;;46.20;22.40;;;;;;;-1.07;90.19;102057.35;130036;1277;114827;-63
2024/01/29 07:27:56;;;;;;;33.50;18.30;;;;;;;-1.03;90.35;102060.24;129900;1277;115064;-63
2024/01/29 07:30:58;;;;;;;40.70;21.40;;;;;;;-0.99;90.44;102060.89;129940;1260;128820;-63
2024/01/29 07:34:00;;;;;;;48.20;25.20;;;;;;;-0.93;90.28;102061.92;129897;1269;114764;-63
2024/01/29 07:37:03;;;;;;;35.80;18.90;;;;;;;-0.87;90.47;102064.20;130039;1259;114834;-64
2024/01/29 07:40:08;;;;;;;24.00;13.90;;;;;;;-0.75;90.70;102064.66;129837;1254;115171;-63
2024/01/29 07:43:09;;;;;;;36.50;19.40;;;;;;;-0.61;90.74;102059.05;130029;1259;114716;-63
2024/01/29 07:46:11;;;;;;;44.20;22.80;;;;;;;-0.43;90.78;102060.73;129857;1270;114796;-63
2024/01/29 07:49:13;;;;;;;38.80;20.30;;;;;;;-0.24;90.70;102063.27;129878;1277;114957;-63
2024/01/29 07:52:15;;;;;;;49.30;25.40;;;;;;;-0.05;90.72;102059.14;129698;1277;128947;-62
2024/01/29 07:55:19;;;;;;;47.60;22.30;;;;;;;0.14;90.52;102055.89;129846;1260;115170;-63
2024/01/29 07:58:22;;;;;;;32.20;16.60;;;;;;;0.33;90.37;102046.29;129896;1260;114718;-62
2024/01/29 08:01:24;;;;;;;38.20;20.40;;;;;;;0.55;89.97;102045.48;129998;1259;114744;-63
2024/01/29 08:04:26;;;;;;;44.80;21.50;;;;;;;0.77;90.04;102043.09;130087;1260;115127;-63
2024/01/29 08:07:28;;;;;;;45.10;22.80;;;;;;;1.01;90.18;102035.98;129473;1258;114782;-61
2024/01/29 08:10:30;;;;;;;44.00;20.60;;;;;;;1.24;89.66;102034.27;129801;1259;114708;-63
2024/01/29 08:13:33;;;;;;;36.80;20.60;;;;;;;1.46;89.58;102029.70;129952;1254;114702;-63
2024/01/29 08:16:35;;;;;;;38.50;22.40;;;;;;;1.65;88.98;102029.48;129967;1254;114720;-63
2024/01/29 08:19:37;;;;;;;37.20;21.70;;;;;;;1.83;88.50;102029.91;129952;1267;114789;-63
2024/01/29 08:22:39;;;;;;;33.20;17.10;;;;;;;1.94;87.78;102034.13;130091;1259;114788;-63
2024/01/29 08:25:41;;;;;;;27.50;14.70;;;;;;;2.02;87.77;102034.74;129870;1268;114622;-63
2024/01/29 08:28:43;;;;;;;39.50;18.50;;;;;;;2.06;87.17;102035.69;129834;1269;114760;-63
2024/01/29 08:31:46;;;;;;;39.20;20.90;;;;;;;2.09;87.03;102035.91;129997;1277;114718;-63
2024/01/29 08:34:49;;;;;;;30.90;17.50;;;;;;;2.14;86.43;102031.75;129879;1260;128574;-63
2024/01/29 08:37:51;;;;;;;44.90;21.70;;;;;;;2.17;86.54;102031.26;130057;1259;114782;-61
2024/01/29 08:40:54;;;;;;;33.00;16.30;;;;;;;2.27;86.70;102031.56;129863;1267;114720;-61
2024/01/29 08:43:57;;;;;;;34.40;18.40;;;;;;;2.39;86.31;102032.59;129909;1259;114731;-61
2024/01/29 08:46:59;;;;;;;25.70;12.90;;;;;;;2.48;85.99;102033.23;129992;1260;115192;-61
2024/01/29 08:50:01;;;;;;;29.90;15.20;;;;;;;2.54;85.70;102035.60;129931;1261;114705;-61
2024/01/29 08:53:03;;;;;;;26.90;15.80;;;;;;;2.65;85.64;102036.42;129909;1269;114765;-61
2024/01/29 08:56:07;;;;;;;32.00;16.30;;;;;;;2.75;85.45;102038.83;129998;1260;115448;-61
2024/01/29 08:59:09;;;;;;;31.40;16.70;;;;;;;2.85;85.38;102040.17;129875;1277;115087;-62
2024/01/29 09:02:11;;;;;;;31.30;17.20;;;;;;;2.94;85.20;102040.97;129873;1277;114712;-62
2024/01/29 09:05:13;;;;;;;36.10;20.70;;;;;;;3.04;84.79;102043.17;129926;1267;114961;-62
2024/01/29 09:08:15;;;;;;;15.00;8.60;;;;;;;3.13;84.78;102044.67;129697;1263;114850;-61
2024/01/29 09:11:17;;;;;;;17.50;9.60;;;;;;;3.22;84.39;102041.05;129922;1258;115359;-61
2024/01/29 09:14:22;;;;;;;30.50;16.40;;;;;;;3.34;84.24;102042.75;129885;1264;114758;-61
2024/01/29 09:17:24;;;;;;;33.40;18.00;;;;;;;3.44;84.12;102043.19;129925;1277;128350;-60
2024/01/29 09:20:27;;;;;;;31.70;16.00;;;;;;;3.54;84.00;102049.64;129891;1259;115297;-61
2024/01/29 09:23:29;;;;;;;33.40;18.00;;;;;;;3.64;83.82;102047.58;129967;1259;114959;-61
2024/01/29 09:26:32;;;;;;;27.50;15.80;;;;;;;3.73;83.14;102049.23;129907;1260;115102;-62
2024/01/29 09:29:34;;;;;;;23.40;12.10;;;;;;;3.83;83.36;102047.89;129539;1277;114825;-61
2024/01/29 09:32:36;;;;;;;26.40;13.60;;;;;;;3.94;82.91;102043.02;129934;1267;114721;-61
2024/01/29 09:35:38;;;;;;;24.90;11.50;;;;;;;4.04;82.65;102044.31;129994;1267;114791;-61
2024/01/29 09:38:40;;;;;;;24.50;14.90;;;;;;;4.15;81.97;102041.19;129845;1277;128528;-61
2024/01/29 09:41:42;;;;;;;21.80;12.10;;;;;;;4.24;81.82;102039.46;129863;1260;115317;-61
2024/01/29 09:44:49;;;;;;;30.60;15.30;;;;;;;4.33;81.07;102037.03;129879;1277;114725;-62
2024/01/29 09:47:54;;;;;;;22.80;12.60;;;;;;;4.42;81.24;102040.61;129977;1261;115311;-61
2024/01/29 09:50:58;;;;;;;27.10;13.90;;;;;;;4.52;80.45;102042.60;129924;1276;115305;-61
2024/01/29 09:54:03;;;;;;;33.60;17.70;;;;;;;4.60;80.54;102045.45;129527;1273;114920;-62
2024/01/29 09:57:06;;;;;;;26.30;13.90;;;;;;;4.70;80.29;102046.01;129667;1261;128029;-61
2024/01/29 10:00:08;;;;;;;25.40;12.00;;;;;;;4.78;79.61;102047.27;129864;1254;114768;-61
2024/01/29 10:03:21;;;;;;;26.60;14.00;;;;;;;4.80;79.07;102045.69;129924;1259;115124;-61
2024/01/29 10:06:23;;;;;;;22.20;10.10;;;;;;;4.86;78.83;102050.48;129962;1259;114843;-61
2024/01/29 10:09:26;;;;;;;21.50;11.50;;;;;;;4.91;78.74;102052.45;129952;1267;114698;-62
2024/01/29 10:12:28;;;;;;;17.20;8.80;;;;;;;4.96;78.51;102048.55;130026;1268;114636;-61
2024/01/29 10:15:31;;;;;;;25.80;14.20;;;;;;;4.99;77.83;102050.86;130001;1260;128979;-61
2024/01/29 10:18:33;;;;;;;25.00;14.60;;;;;;;5.01;77.51;102050.52;129945;1260;114827;-61
2024/01/29 10:21:39;;;;;;;28.90;14.70;;;;;;;5.04;77.72;102042.37;129956;1264;114747;-62
2024/01/29 10:24:42;;;;;;;14.70;7.70;;;;;;;5.09;77.10;102040.08;129657;1277;115092;-62
2024/01/29 10:27:45;;;;;;;24.20;13.30;;;;;;;5.13;76.52;102035.65;129921;1257;114769;-62
2024/01/29 10:30:47;;;;;;;16.90;10.30;;;;;;;5.18;76.75;102030.00;130129;1253;115795;-61
2024/01/29 10:33:49;;;;;;;21.60;11.40;;;;;;;5.24;76.40;102021.49;130063;1260;114708;-62
2024/01/29 10:36:53;;;;;;;23.80;12.00;;;;;;;5.30;75.86;102015.65;129905;1277;128831;-62
2024/01/29 10:39:55;;;;;;;12.10;6.40;;;;;;;5.37;76.04;102015.83;129955;1276;115151;-62
2024/01/29 10:42:59;;;;;;;34.80;21.20;;;;;;;5.45;75.93;102010.52;129903;1277;114826;-61
2024/01/29 10:46:05;;;;;;;21.60;9.80;;;;;;;5.53;76.08;102011.73;130041;1260;114732;-62
2024/01/29 10:49:08;;;;;;;19.10;9.30;;;;;;;5.62;75.51;102007.30;130069;1272;114683;-61
2024/01/29 10:52:12;;;;;;;17.20;9.10;;;;;;;5.72;75.48;102006.40;129943;1272;114703;-61
2024/01/29 10:55:15;;;;;;;14.10;7.90;;;;;;;5.82;75.27;102001.77;129606;1267;114780;-61
2024/01/29 10:58:19;;;;;;;32.30;20.30;;;;;;;5.93;75.28;101996.59;130014;1267;114867;-61
2024/01/29 11:01:22;;;;;;;27.40;18.60;;;;;;;6.05;74.36;101992.86;130106;1259;114636;-61
2024/01/29 11:04:24;;;;;;;24.10;13.10;;;;;;;6.16;74.34;101992.83;130149;1277;114715;-61
2024/01/29 11:07:28;;;;;;;16.80;8.50;;;;;;;6.26;74.31;101991.02;129983;1277;114811;-61
2024/01/29 11:10:31;;;;;;;13.50;7.00;;;;;;;6.34;73.26;101985.65;129810;1270;115391;-61
2024/01/29 11:13:33;;;;;;;32.20;21.40;;;;;;;6.42;72.83;101980.48;129930;1267;162768;-62
2024/01/29 11:16:37;;;;;;;15.00;7.30;;;;;;;6.50;72.42;101980.96;130018;1259;115299;-62
2024/01/29 11:34:23;;;;;;;14.70;9.40;;;;;;;7.19;70.35;101968.16;126843;1288;654241;-67
2024/01/29 11:38:29;;;;;;;11.10;6.90;;;;;;;7.38;70.59;101973.20;123709;1286;5351240;-68
2024/01/29 11:42:35;;;;;;;13.00;5.40;;;;;;;7.40;70.27;101971.41;127010;1284;126979;-68
2024/01/29 11:46:39;;;;;;;12.40;6.70;;;;;;;7.43;70.46;101968.02;126373;1295;115234;-67
2024/01/29 11:50:40;;;;;;;8.40;3.70;;;;;;;7.49;70.09;101960.14;125633;1301;114900;-67
2024/01/29 11:54:04;;;;;;;8.80;5.50;;;;;;;7.50;69.34;101955.33;124252;1331;114802;-67
2024/01/29 11:58:04;;;;;;;9.80;4.90;;;;;;;7.51;68.58;101949.10;124433;1313;114985;-68
2024/01/29 12:06:10;;;;;;;;;;;;;;;;;;;;;
2024/01/29 12:10:14;;;;;;;8.90;4.90;;;;;;;7.59;68.05;101933.90;126904;1292;128951;-66
2024/01/29 12:14:20;;;;;;;11.10;7.80;;;;;;;7.62;68.22;101927.10;125721;1300;114809;-68
2024/01/29 12:18:14;;;;;;;14.90;6.70;;;;;;;7.66;68.14;101920.66;121222;1309;5419982;-68
2024/01/29 12:22:14;;;;;;;13.30;9.00;;;;;;;7.70;68.05;101920.08;124246;1312;115028;-68
2024/01/29 12:26:15;;;;;;;12.90;6.70;;;;;;;7.74;67.80;101916.13;123851;1329;114973;-67
2024/01/29 12:38:46;;;;;;;22.30;15.90;;;;;;;7.89;67.25;101908.80;128039;1281;127823;-68
2024/01/29 12:46:51;;;;;;;7.70;4.80;;;;;;;8.01;66.78;101907.25;123291;1291;5440646;-68
2024/01/29 12:50:51;;;;;;;9.20;4.80;;;;;;;8.07;66.41;101903.80;126126;1299;114960;-67
2024/01/29 12:54:56;;;;;;;12.70;6.10;;;;;;;8.13;66.51;101901.94;125300;1307;114885;-67
2024/01/29 12:58:56;;;;;;;9.70;4.70;;;;;;;8.17;66.48;101899.93;125638;1304;114792;-68
2024/01/29 13:07:27;;;;;;;19.90;11.30;;;;;;;8.28;66.58;101902.10;125779;1301;638562;-68
2024/01/29 13:15:31;;;;;;;12.40;5.30;;;;;;;8.34;65.92;101896.85;126305;1296;114888;-68
2024/01/29 13:19:14;;;;;;;;;;;;;;;;;;;;;
2024/01/29 13:27:34;;;;;;;;;;;;;;;;;;;;;
2024/01/29 13:31:28;;;;;;;8.50;4.30;;;;;;;8.42;65.48;101890.67;127783;1292;128619;-69
2024/01/29 13:35:31;;;;;;;14.50;4.90;;;;;;;8.44;65.27;101887.26;127785;1283;114891;-67
2024/01/29 13:39:38;;;;;;;10.60;5.60;;;;;;;8.46;64.85;101886.33;123087;1287;5463542;-67
2024/01/29 13:43:12;;;;;;;;;;;;;;;;;;;;;
2024/01/29 13:47:16;;;;;;;12.30;6.40;;;;;;;8.47;64.56;101883.65;126043;1301;114971;-68
2024/01/29 13:51:16;;;;;;;;;;;;;;;;;;;;;
2024/01/29 13:55:17;;;;;;;;;;;;;;;;;;;;;
2024/01/29 13:59:32;;;;;;;9.40;5.00;;;;;;;8.53;63.86;101867.75;126703;1296;637387;-68
2024/01/29 14:03:33;;;;;;;10.60;6.10;;;;;;;8.49;63.70;101864.96;128455;1276;127621;-68
2024/01/29 14:11:58;;;;;;;10.80;5.80;;;;;;;8.50;63.77;101869.73;125971;1310;636645;-68
2024/01/29 14:16:00;;;;;;;10.60;6.60;;;;;;;8.46;63.60;101874.59;126725;1300;128383;-66
2024/01/29 14:24:03;;;;;;;11.20;5.70;;;;;;;8.39;63.50;101889.83;121148;1318;5473439;-68
2024/01/29 14:32:28;;;;;;;10.70;6.40;;;;;;;8.29;63.35;101878.94;126593;1302;635300;-68
2024/01/29 14:40:31;;;;;;;8.60;6.00;;;;;;;8.12;63.20;101880.78;129379;1267;114748;-68
2024/01/29 14:44:24;;;;;;;9.30;4.90;;;;;;;8.02;63.02;101876.64;124784;1270;5452679;-68
2024/01/29 14:48:19;;;;;;;;;;;;;;;;;;;;;
2024/01/29 14:52:13;;;;;;;;;;;;;;;;;;;;;
2024/01/29 14:56:22;;;;;;;12.80;7.20;;;;;;;7.75;64.09;101877.87;126552;1295;114887;-67
2024/01/29 15:00:24;;;;;;;13.60;6.20;;;;;;;7.64;64.24;101877.48;125658;1303;128242;-67
2024/01/29 15:08:48;;;;;;;12.00;6.50;;;;;;;7.44;64.74;101871.30;125859;1300;636243;-66
2024/01/29 15:12:34;;;;;;;10.80;6.40;;;;;;;7.31;64.54;101869.84;127928;1285;128873;-66
2024/01/29 15:16:35;;;;;;;17.70;6.40;;;;;;;7.20;64.67;101872.43;127390;1284;114919;-67
2024/01/29 15:24:37;;;;;;;;;;;;;;;;;;;;;
2024/01/29 15:33:00;;;;;;;14.60;6.60;;;;;;;6.80;65.99;101871.73;126422;1295;637357;-68
2024/01/29 15:37:04;;;;;;;9.90;4.60;;;;;;;6.68;66.33;101877.52;128253;1297;131190;-67
2024/01/29 15:40:58;;;;;;;9.70;6.00;;;;;;;6.58;66.65;101887.00;126836;1289;114898;-66
2024/01/29 15:44:52;;;;;;;16.60;7.40;;;;;;;6.48;66.91;101887.79;122218;1295;5470318;-67
2024/01/29 15:48:56;;;;;;;13.60;6.60;;;;;;;6.38;67.00;101894.23;125095;1304;114942;-68
2024/01/29 16:01:17;;;;;;;13.00;8.30;;;;;;;6.08;67.67;101900.27;127356;1295;127534;-67